sensor_id;sensor_type;location;lat;lon;timestamp;temperature;humidity
49218;DHT22;35045;51.194;7.268;2023-04-06T00:02:04;5.00;93.80
49218;DHT22;35045;51.194;7.268;2023-04-06T00:04:30;5.00;93.90
49218;DHT22;35045;51.194;7.268;2023-04-06T00:06:56;4.90;93.90
49218;DHT22;35045;51.194;7.268;2023-04-06T00:09:22;4.90;94.00
49218;DHT22;35045;51.194;7.268;2023-04-06T00:11:48;4.90;94.00
49218;DHT22;35045;51.194;7.268;2023-04-06T00:14:15;4.90;94.20
49218;DHT22;35045;51.194;7.268;2023-04-06T00:16:43;4.90;94.20
49218;DHT22;35045;51.194;7.268;2023-04-06T00:19:09;4.80;94.20
49218;DHT22;35045;51.194;7.268;2023-04-06T00:21:35;4.80;94.20
49218;DHT22;35045;51.194;7.268;2023-04-06T00:24:01;4.80;94.50
49218;DHT22;35045;51.194;7.268;2023-04-06T00:26:29;4.80;94.30
49218;DHT22;35045;51.194;7.268;2023-04-06T00:28:55;4.70;94.10
49218;DHT22;35045;51.194;7.268;2023-04-06T00:31:22;4.70;94.30
49218;DHT22;35045;51.194;7.268;2023-04-06T00:33:48;4.70;94.40
49218;DHT22;35045;51.194;7.268;2023-04-06T00:36:14;4.70;94.30
49218;DHT22;35045;51.194;7.268;2023-04-06T00:38:41;4.60;94.60
49218;DHT22;35045;51.194;7.268;2023-04-06T00:41:07;4.60;95.00
49218;DHT22;35045;51.194;7.268;2023-04-06T00:43:33;4.50;95.20
49218;DHT22;35045;51.194;7.268;2023-04-06T00:45:59;4.50;95.50
49218;DHT22;35045;51.194;7.268;2023-04-06T00:48:25;4.40;95.40
49218;DHT22;35045;51.194;7.268;2023-04-06T00:50:52;4.40;95.50
49218;DHT22;35045;51.194;7.268;2023-04-06T00:53:18;4.40;95.60
49218;DHT22;35045;51.194;7.268;2023-04-06T00:55:44;4.40;95.50
49218;DHT22;35045;51.194;7.268;2023-04-06T00:58:10;4.40;95.80
49218;DHT22;35045;51.194;7.268;2023-04-06T01:00:37;4.40;95.40
49218;DHT22;35045;51.194;7.268;2023-04-06T01:03:03;4.40;95.50
49218;DHT22;35045;51.194;7.268;2023-04-06T01:05:34;4.40;95.30
49218;DHT22;35045;51.194;7.268;2023-04-06T01:08:00;4.30;95.60
49218;DHT22;35045;51.194;7.268;2023-04-06T01:10:28;4.30;95.30
49218;DHT22;35045;51.194;7.268;2023-04-06T01:12:54;4.40;95.50
49218;DHT22;35045;51.194;7.268;2023-04-06T01:15:21;4.30;95.40
49218;DHT22;35045;51.194;7.268;2023-04-06T01:17:47;4.30;95.40
49218;DHT22;35045;51.194;7.268;2023-04-06T01:20:13;4.30;95.30
49218;DHT22;35045;51.194;7.268;2023-04-06T01:22:40;4.30;95.50
49218;DHT22;35045;51.194;7.268;2023-04-06T01:25:07;4.30;95.40
49218;DHT22;35045;51.194;7.268;2023-04-06T01:27:33;4.30;95.30
49218;DHT22;35045;51.194;7.268;2023-04-06T01:29:59;4.30;95.20
49218;DHT22;35045;51.194;7.268;2023-04-06T01:32:25;4.40;95.30
49218;DHT22;35045;51.194;7.268;2023-04-06T01:34:52;4.40;95.30
49218;DHT22;35045;51.194;7.268;2023-04-06T01:37:18;4.40;95.30
49218;DHT22;35045;51.194;7.268;2023-04-06T01:39:44;4.40;95.60
49218;DHT22;35045;51.194;7.268;2023-04-06T01:42:10;4.30;95.70
49218;DHT22;35045;51.194;7.268;2023-04-06T01:44:36;4.30;95.70
49218;DHT22;35045;51.194;7.268;2023-04-06T01:47:03;4.30;95.70
49218;DHT22;35045;51.194;7.268;2023-04-06T01:49:29;4.30;95.60
49218;DHT22;35045;51.194;7.268;2023-04-06T01:51:55;4.20;95.40
49218;DHT22;35045;51.194;7.268;2023-04-06T01:54:21;4.20;95.30
49218;DHT22;35045;51.194;7.268;2023-04-06T01:56:48;4.20;95.60
49218;DHT22;35045;51.194;7.268;2023-04-06T01:59:16;4.10;95.60
49218;DHT22;35045;51.194;7.268;2023-04-06T02:01:42;4.10;95.70
49218;DHT22;35045;51.194;7.268;2023-04-06T02:04:08;4.10;95.50
49218;DHT22;35045;51.194;7.268;2023-04-06T02:06:34;4.10;95.50
49218;DHT22;35045;51.194;7.268;2023-04-06T02:09:01;4.10;95.60
49218;DHT22;35045;51.194;7.268;2023-04-06T02:11:27;4.00;95.70
49218;DHT22;35045;51.194;7.268;2023-04-06T02:13:53;4.00;95.70
49218;DHT22;35045;51.194;7.268;2023-04-06T02:16:20;4.00;95.70
49218;DHT22;35045;51.194;7.268;2023-04-06T02:18:46;4.00;95.60
49218;DHT22;35045;51.194;7.268;2023-04-06T02:21:12;4.00;95.90
49218;DHT22;35045;51.194;7.268;2023-04-06T02:23:38;3.90;95.90
49218;DHT22;35045;51.194;7.268;2023-04-06T02:26:04;4.00;96.00
49218;DHT22;35045;51.194;7.268;2023-04-06T02:28:31;4.00;95.90
49218;DHT22;35045;51.194;7.268;2023-04-06T02:30:57;3.90;95.80
49218;DHT22;35045;51.194;7.268;2023-04-06T02:33:23;3.90;95.90
49218;DHT22;35045;51.194;7.268;2023-04-06T02:35:49;4.00;96.00
49218;DHT22;35045;51.194;7.268;2023-04-06T02:38:16;3.90;96.10
49218;DHT22;35045;51.194;7.268;2023-04-06T02:40:42;4.00;96.20
49218;DHT22;35045;51.194;7.268;2023-04-06T02:43:08;4.00;96.20
49218;DHT22;35045;51.194;7.268;2023-04-06T02:45:34;3.90;96.00
49218;DHT22;35045;51.194;7.268;2023-04-06T02:48:01;3.90;95.90
49218;DHT22;35045;51.194;7.268;2023-04-06T02:50:27;3.90;96.00
49218;DHT22;35045;51.194;7.268;2023-04-06T02:52:53;3.90;95.90
49218;DHT22;35045;51.194;7.268;2023-04-06T02:55:19;3.80;96.00
49218;DHT22;35045;51.194;7.268;2023-04-06T02:57:47;3.90;96.50
49218;DHT22;35045;51.194;7.268;2023-04-06T03:00:13;3.80;96.60
49218;DHT22;35045;51.194;7.268;2023-04-06T03:02:39;3.80;96.30
49218;DHT22;35045;51.194;7.268;2023-04-06T03:05:06;3.80;96.40
49218;DHT22;35045;51.194;7.268;2023-04-06T03:07:32;3.80;98.00
49218;DHT22;35045;51.194;7.268;2023-04-06T03:09:58;3.70;97.10
49218;DHT22;35045;51.194;7.268;2023-04-06T03:12:24;3.80;97.70
49218;DHT22;35045;51.194;7.268;2023-04-06T03:14:50;3.70;97.50
49218;DHT22;35045;51.194;7.268;2023-04-06T03:17:16;3.70;97.90
49218;DHT22;35045;51.194;7.268;2023-04-06T03:19:43;3.60;97.20
49218;DHT22;35045;51.194;7.268;2023-04-06T03:22:09;3.70;97.50
49218;DHT22;35045;51.194;7.268;2023-04-06T03:24:35;3.60;97.00
49218;DHT22;35045;51.194;7.268;2023-04-06T03:27:01;3.70;97.40
49218;DHT22;35045;51.194;7.268;2023-04-06T03:29:27;3.60;98.10
49218;DHT22;35045;51.194;7.268;2023-04-06T03:31:54;3.60;97.80
49218;DHT22;35045;51.194;7.268;2023-04-06T03:34:20;3.60;97.60
49218;DHT22;35045;51.194;7.268;2023-04-06T03:36:46;3.60;97.90
49218;DHT22;35045;51.194;7.268;2023-04-06T03:39:14;3.50;98.10
49218;DHT22;35045;51.194;7.268;2023-04-06T03:41:41;3.50;97.40
49218;DHT22;35045;51.194;7.268;2023-04-06T03:44:07;3.50;97.20
49218;DHT22;35045;51.194;7.268;2023-04-06T03:46:33;3.60;97.20
49218;DHT22;35045;51.194;7.268;2023-04-06T03:48:59;3.70;97.10
49218;DHT22;35045;51.194;7.268;2023-04-06T03:51:26;3.70;97.00
49218;DHT22;35045;51.194;7.268;2023-04-06T03:53:52;3.60;97.00
49218;DHT22;35045;51.194;7.268;2023-04-06T03:56:19;3.60;97.20
49218;DHT22;35045;51.194;7.268;2023-04-06T03:58:45;3.60;97.40
49218;DHT22;35045;51.194;7.268;2023-04-06T04:01:15;3.60;97.30
49218;DHT22;35045;51.194;7.268;2023-04-06T04:03:41;3.60;97.20
49218;DHT22;35045;51.194;7.268;2023-04-06T04:06:07;3.60;97.30
49218;DHT22;35045;51.194;7.268;2023-04-06T04:08:33;3.50;97.20
49218;DHT22;35045;51.194;7.268;2023-04-06T04:11:01;3.50;97.30
49218;DHT22;35045;51.194;7.268;2023-04-06T04:13:27;3.40;97.40
49218;DHT22;35045;51.194;7.268;2023-04-06T04:15:53;3.50;97.50
49218;DHT22;35045;51.194;7.268;2023-04-06T04:18:20;3.50;97.60
49218;DHT22;35045;51.194;7.268;2023-04-06T04:20:46;3.50;97.30
49218;DHT22;35045;51.194;7.268;2023-04-06T04:23:12;3.50;97.30
49218;DHT22;35045;51.194;7.268;2023-04-06T04:25:38;3.40;97.50
49218;DHT22;35045;51.194;7.268;2023-04-06T04:28:04;3.40;97.70
49218;DHT22;35045;51.194;7.268;2023-04-06T04:30:31;3.40;97.60
49218;DHT22;35045;51.194;7.268;2023-04-06T04:32:57;3.40;97.40
49218;DHT22;35045;51.194;7.268;2023-04-06T04:35:23;3.40;97.60
49218;DHT22;35045;51.194;7.268;2023-04-06T04:37:49;3.40;97.40
49218;DHT22;35045;51.194;7.268;2023-04-06T04:40:15;3.40;97.20
49218;DHT22;35045;51.194;7.268;2023-04-06T04:42:42;3.40;97.30
49218;DHT22;35045;51.194;7.268;2023-04-06T04:45:09;3.40;97.30
49218;DHT22;35045;51.194;7.268;2023-04-06T04:47:35;3.40;97.50
49218;DHT22;35045;51.194;7.268;2023-04-06T04:50:01;3.40;97.30
49218;DHT22;35045;51.194;7.268;2023-04-06T04:52:27;3.40;97.40
49218;DHT22;35045;51.194;7.268;2023-04-06T04:54:53;3.30;97.40
49218;DHT22;35045;51.194;7.268;2023-04-06T04:57:19;3.30;97.50
49218;DHT22;35045;51.194;7.268;2023-04-06T04:59:46;3.20;97.60
49218;DHT22;35045;51.194;7.268;2023-04-06T05:02:12;3.20;97.60
49218;DHT22;35045;51.194;7.268;2023-04-06T05:04:38;3.20;97.30
49218;DHT22;35045;51.194;7.268;2023-04-06T05:07:08;3.20;97.30
49218;DHT22;35045;51.194;7.268;2023-04-06T05:09:34;3.20;97.30
49218;DHT22;35045;51.194;7.268;2023-04-06T05:12:01;3.20;97.30
49218;DHT22;35045;51.194;7.268;2023-04-06T05:14:27;3.20;97.50
49218;DHT22;35045;51.194;7.268;2023-04-06T05:16:54;3.20;97.10
49218;DHT22;35045;51.194;7.268;2023-04-06T05:19:21;3.30;97.10
49218;DHT22;35045;51.194;7.268;2023-04-06T05:21:51;3.30;96.90
49218;DHT22;35045;51.194;7.268;2023-04-06T05:24:17;3.40;96.70
49218;DHT22;35045;51.194;7.268;2023-04-06T05:26:43;3.40;96.60
49218;DHT22;35045;51.194;7.268;2023-04-06T05:29:12;3.50;96.60
49218;DHT22;35045;51.194;7.268;2023-04-06T05:31:38;3.50;96.50
49218;DHT22;35045;51.194;7.268;2023-04-06T05:34:04;3.60;96.30
49218;DHT22;35045;51.194;7.268;2023-04-06T05:36:31;3.60;96.30
49218;DHT22;35045;51.194;7.268;2023-04-06T05:38:58;3.70;96.40
49218;DHT22;35045;51.194;7.268;2023-04-06T05:41:24;3.70;96.30
49218;DHT22;35045;51.194;7.268;2023-04-06T05:43:50;3.80;95.90
49218;DHT22;35045;51.194;7.268;2023-04-06T05:46:16;3.90;95.70
49218;DHT22;35045;51.194;7.268;2023-04-06T05:48:42;4.00;95.60
49218;DHT22;35045;51.194;7.268;2023-04-06T05:51:09;4.10;95.40
49218;DHT22;35045;51.194;7.268;2023-04-06T05:53:35;4.20;95.30
49218;DHT22;35045;51.194;7.268;2023-04-06T05:56:02;4.30;95.10
49218;DHT22;35045;51.194;7.268;2023-04-06T05:58:28;4.30;95.00
49218;DHT22;35045;51.194;7.268;2023-04-06T06:01:01;4.30;95.50
49218;DHT22;35045;51.194;7.268;2023-04-06T06:03:27;4.50;95.10
49218;DHT22;35045;51.194;7.268;2023-04-06T06:05:53;4.60;94.40
49218;DHT22;35045;51.194;7.268;2023-04-06T06:08:19;4.60;94.50
49218;DHT22;35045;51.194;7.268;2023-04-06T06:10:46;4.70;94.90
49218;DHT22;35045;51.194;7.268;2023-04-06T06:13:12;4.80;94.60
49218;DHT22;35045;51.194;7.268;2023-04-06T06:15:38;4.90;94.70
49218;DHT22;35045;51.194;7.268;2023-04-06T06:18:04;5.00;94.80
49218;DHT22;35045;51.194;7.268;2023-04-06T06:20:31;5.10;94.60
49218;DHT22;35045;51.194;7.268;2023-04-06T06:22:57;5.20;94.20
49218;DHT22;35045;51.194;7.268;2023-04-06T06:25:23;5.20;94.00
49218;DHT22;35045;51.194;7.268;2023-04-06T06:27:50;5.20;94.20
49218;DHT22;35045;51.194;7.268;2023-04-06T06:30:16;5.30;93.30
49218;DHT22;35045;51.194;7.268;2023-04-06T06:32:42;5.30;93.90
49218;DHT22;35045;51.194;7.268;2023-04-06T06:35:09;5.40;93.70
49218;DHT22;35045;51.194;7.268;2023-04-06T06:37:35;5.60;93.40
49218;DHT22;35045;51.194;7.268;2023-04-06T06:40:01;5.70;93.40
49218;DHT22;35045;51.194;7.268;2023-04-06T06:42:27;5.70;93.60
49218;DHT22;35045;51.194;7.268;2023-04-06T06:44:54;5.80;93.30
49218;DHT22;35045;51.194;7.268;2023-04-06T06:47:20;5.90;93.20
49218;DHT22;35045;51.194;7.268;2023-04-06T06:49:46;6.00;92.50
49218;DHT22;35045;51.194;7.268;2023-04-06T06:52:12;6.00;93.00
49218;DHT22;35045;51.194;7.268;2023-04-06T06:54:38;6.10;92.20
49218;DHT22;35045;51.194;7.268;2023-04-06T06:57:04;6.20;92.60
49218;DHT22;35045;51.194;7.268;2023-04-06T06:59:31;6.20;92.00
49218;DHT22;35045;51.194;7.268;2023-04-06T07:01:57;6.30;92.40
49218;DHT22;35045;51.194;7.268;2023-04-06T07:04:23;6.30;92.30
49218;DHT22;35045;51.194;7.268;2023-04-06T07:06:49;6.40;92.00
49218;DHT22;35045;51.194;7.268;2023-04-06T07:09:16;6.40;92.20
49218;DHT22;35045;51.194;7.268;2023-04-06T07:11:42;6.50;91.70
49218;DHT22;35045;51.194;7.268;2023-04-06T07:14:08;6.50;92.30
49218;DHT22;35045;51.194;7.268;2023-04-06T07:16:35;6.50;91.80
49218;DHT22;35045;51.194;7.268;2023-04-06T07:19:01;6.60;92.20
49218;DHT22;35045;51.194;7.268;2023-04-06T07:21:27;6.80;92.10
49218;DHT22;35045;51.194;7.268;2023-04-06T07:23:53;6.80;91.80
49218;DHT22;35045;51.194;7.268;2023-04-06T07:26:19;6.90;92.50
49218;DHT22;35045;51.194;7.268;2023-04-06T07:28:46;7.00;92.30
49218;DHT22;35045;51.194;7.268;2023-04-06T07:31:12;7.00;92.50
49218;DHT22;35045;51.194;7.268;2023-04-06T07:33:38;7.10;91.90
49218;DHT22;35045;51.194;7.268;2023-04-06T07:36:04;7.20;92.10
49218;DHT22;35045;51.194;7.268;2023-04-06T07:38:31;7.30;92.20
49218;DHT22;35045;51.194;7.268;2023-04-06T07:41:03;7.40;91.80
49218;DHT22;35045;51.194;7.268;2023-04-06T07:43:30;7.50;91.40
49218;DHT22;35045;51.194;7.268;2023-04-06T07:45:56;7.50;91.20
49218;DHT22;35045;51.194;7.268;2023-04-06T07:48:23;7.60;91.10
49218;DHT22;35045;51.194;7.268;2023-04-06T07:50:49;7.50;91.80
49218;DHT22;35045;51.194;7.268;2023-04-06T07:53:15;7.70;91.50
49218;DHT22;35045;51.194;7.268;2023-04-06T07:55:41;7.80;92.00
49218;DHT22;35045;51.194;7.268;2023-04-06T07:58:08;8.00;91.80
49218;DHT22;35045;51.194;7.268;2023-04-06T08:00:34;8.00;91.30
49218;DHT22;35045;51.194;7.268;2023-04-06T08:03:01;8.10;91.10
49218;DHT22;35045;51.194;7.268;2023-04-06T08:05:27;8.10;91.40
49218;DHT22;35045;51.194;7.268;2023-04-06T08:07:53;8.20;91.50
49218;DHT22;35045;51.194;7.268;2023-04-06T08:10:19;8.20;90.80
49218;DHT22;35045;51.194;7.268;2023-04-06T08:12:47;8.30;90.40
49218;DHT22;35045;51.194;7.268;2023-04-06T08:15:13;8.40;91.00
49218;DHT22;35045;51.194;7.268;2023-04-06T08:17:39;8.50;90.90
49218;DHT22;35045;51.194;7.268;2023-04-06T08:20:06;8.70;90.80
49218;DHT22;35045;51.194;7.268;2023-04-06T08:22:32;8.90;91.50
49218;DHT22;35045;51.194;7.268;2023-04-06T08:24:58;9.00;92.40
49218;DHT22;35045;51.194;7.268;2023-04-06T08:27:25;9.30;90.80
49218;DHT22;35045;51.194;7.268;2023-04-06T08:29:51;9.60;93.10
49218;DHT22;35045;51.194;7.268;2023-04-06T08:32:17;9.80;92.00
49218;DHT22;35045;51.194;7.268;2023-04-06T08:34:44;10.10;92.30
49218;DHT22;35045;51.194;7.268;2023-04-06T08:37:10;10.30;92.80
49218;DHT22;35045;51.194;7.268;2023-04-06T08:39:36;10.50;89.20
49218;DHT22;35045;51.194;7.268;2023-04-06T08:42:02;10.50;90.80
49218;DHT22;35045;51.194;7.268;2023-04-06T08:44:30;10.50;88.30
49218;DHT22;35045;51.194;7.268;2023-04-06T08:46:59;10.30;86.90
49218;DHT22;35045;51.194;7.268;2023-04-06T08:49:25;10.20;87.30
49218;DHT22;35045;51.194;7.268;2023-04-06T08:51:52;10.10;88.10
49218;DHT22;35045;51.194;7.268;2023-04-06T08:54:18;10.10;89.00
49218;DHT22;35045;51.194;7.268;2023-04-06T08:56:45;10.20;88.00
49218;DHT22;35045;51.194;7.268;2023-04-06T08:59:13;10.30;88.20
49218;DHT22;35045;51.194;7.268;2023-04-06T09:01:40;10.40;86.60
49218;DHT22;35045;51.194;7.268;2023-04-06T09:04:09;10.40;86.80
49218;DHT22;35045;51.194;7.268;2023-04-06T09:06:37;10.30;87.60
49218;DHT22;35045;51.194;7.268;2023-04-06T09:09:03;10.20;86.60
49218;DHT22;35045;51.194;7.268;2023-04-06T09:11:42;10.20;87.70
49218;DHT22;35045;51.194;7.268;2023-04-06T09:14:08;10.20;87.70
49218;DHT22;35045;51.194;7.268;2023-04-06T09:16:41;10.30;87.00
49218;DHT22;35045;51.194;7.268;2023-04-06T09:19:08;10.50;86.30
49218;DHT22;35045;51.194;7.268;2023-04-06T09:21:35;10.60;86.30
49218;DHT22;35045;51.194;7.268;2023-04-06T09:24:03;10.60;85.50
49218;DHT22;35045;51.194;7.268;2023-04-06T09:26:29;10.80;86.90
49218;DHT22;35045;51.194;7.268;2023-04-06T09:28:57;10.90;86.30
49218;DHT22;35045;51.194;7.268;2023-04-06T09:31:31;10.80;86.50
49218;DHT22;35045;51.194;7.268;2023-04-06T09:33:59;10.90;85.50
49218;DHT22;35045;51.194;7.268;2023-04-06T09:36:30;11.10;86.70
49218;DHT22;35045;51.194;7.268;2023-04-06T09:39:02;11.10;84.20
49218;DHT22;35045;51.194;7.268;2023-04-06T09:41:33;11.10;84.00
49218;DHT22;35045;51.194;7.268;2023-04-06T09:44:12;11.20;84.40
49218;DHT22;35045;51.194;7.268;2023-04-06T09:46:42;11.40;84.00
49218;DHT22;35045;51.194;7.268;2023-04-06T09:49:21;11.50;83.50
49218;DHT22;35045;51.194;7.268;2023-04-06T09:51:58;11.60;84.00
49218;DHT22;35045;51.194;7.268;2023-04-06T09:54:28;11.70;83.50
49218;DHT22;35045;51.194;7.268;2023-04-06T09:59:44;11.90;82.70
49218;DHT22;35045;51.194;7.268;2023-04-06T10:05:43;12.00;82.10
49218;DHT22;35045;51.194;7.268;2023-04-06T10:08:10;12.20;82.70
49218;DHT22;35045;51.194;7.268;2023-04-06T10:10:37;12.20;81.30
49218;DHT22;35045;51.194;7.268;2023-04-06T10:13:04;12.30;81.90
49218;DHT22;35045;51.194;7.268;2023-04-06T10:15:31;12.40;82.40
49218;DHT22;35045;51.194;7.268;2023-04-06T10:17:58;12.40;82.00
49218;DHT22;35045;51.194;7.268;2023-04-06T10:23:09;12.50;81.70
49218;DHT22;35045;51.194;7.268;2023-04-06T10:25:40;12.60;82.10
49218;DHT22;35045;51.194;7.268;2023-04-06T10:28:19;12.60;82.00
49218;DHT22;35045;51.194;7.268;2023-04-06T10:30:45;12.70;81.50
49218;DHT22;35045;51.194;7.268;2023-04-06T10:33:18;12.70;80.50
49218;DHT22;35045;51.194;7.268;2023-04-06T10:35:45;12.90;81.30
49218;DHT22;35045;51.194;7.268;2023-04-06T10:38:12;13.00;82.10
49218;DHT22;35045;51.194;7.268;2023-04-06T10:40:41;13.10;82.80
49218;DHT22;35045;51.194;7.268;2023-04-06T10:43:22;13.30;82.90
49218;DHT22;35045;51.194;7.268;2023-04-06T10:46:00;13.20;79.30
49218;DHT22;35045;51.194;7.268;2023-04-06T10:48:43;13.00;78.60
49218;DHT22;35045;51.194;7.268;2023-04-06T10:51:12;13.00;79.00
49218;DHT22;35045;51.194;7.268;2023-04-06T10:53:41;13.00;78.90
49218;DHT22;35045;51.194;7.268;2023-04-06T10:56:12;12.90;79.40
49218;DHT22;35045;51.194;7.268;2023-04-06T10:58:44;12.80;79.50
49218;DHT22;35045;51.194;7.268;2023-04-06T11:01:12;12.70;79.40
49218;DHT22;35045;51.194;7.268;2023-04-06T11:03:53;12.60;79.70
49218;DHT22;35045;51.194;7.268;2023-04-06T11:06:24;12.60;81.30
49218;DHT22;35045;51.194;7.268;2023-04-06T11:08:52;12.70;80.90
49218;DHT22;35045;51.194;7.268;2023-04-06T11:11:19;12.90;81.50
49218;DHT22;35045;51.194;7.268;2023-04-06T11:16:20;13.20;81.20
49218;DHT22;35045;51.194;7.268;2023-04-06T11:18:57;13.30;80.30
49218;DHT22;35045;51.194;7.268;2023-04-06T11:21:47;13.50;79.40
49218;DHT22;35045;51.194;7.268;2023-04-06T11:24:17;13.50;78.70
49218;DHT22;35045;51.194;7.268;2023-04-06T11:26:49;13.70;79.90
49218;DHT22;35045;51.194;7.268;2023-04-06T11:29:19;13.80;78.30
49218;DHT22;35045;51.194;7.268;2023-04-06T11:31:47;13.70;79.30
49218;DHT22;35045;51.194;7.268;2023-04-06T11:34:23;13.80;79.20
49218;DHT22;35045;51.194;7.268;2023-04-06T11:36:57;13.90;79.60
49218;DHT22;35045;51.194;7.268;2023-04-06T11:39:25;14.30;79.40
49218;DHT22;35045;51.194;7.268;2023-04-06T11:41:54;14.40;80.70
49218;DHT22;35045;51.194;7.268;2023-04-06T11:44:49;14.40;78.30
49218;DHT22;35045;51.194;7.268;2023-04-06T11:47:15;14.50;79.40
49218;DHT22;35045;51.194;7.268;2023-04-06T11:49:43;14.50;79.70
49218;DHT22;35045;51.194;7.268;2023-04-06T11:52:24;14.60;79.40
49218;DHT22;35045;51.194;7.268;2023-04-06T11:54:52;14.70;78.00
49218;DHT22;35045;51.194;7.268;2023-04-06T11:57:19;14.60;79.80
49218;DHT22;35045;51.194;7.268;2023-04-06T11:59:46;14.50;79.10
49218;DHT22;35045;51.194;7.268;2023-04-06T12:02:12;14.60;78.70
49218;DHT22;35045;51.194;7.268;2023-04-06T12:04:39;14.50;79.20
49218;DHT22;35045;51.194;7.268;2023-04-06T12:07:05;14.40;78.20
49218;DHT22;35045;51.194;7.268;2023-04-06T12:09:31;14.40;78.80
49218;DHT22;35045;51.194;7.268;2023-04-06T12:11:58;14.40;76.90
49218;DHT22;35045;51.194;7.268;2023-04-06T12:14:24;14.30;76.70
49218;DHT22;35045;51.194;7.268;2023-04-06T12:16:50;14.20;76.30
49218;DHT22;35045;51.194;7.268;2023-04-06T12:19:17;14.20;76.20
49218;DHT22;35045;51.194;7.268;2023-04-06T12:21:43;14.10;76.80
49218;DHT22;35045;51.194;7.268;2023-04-06T12:24:09;13.90;75.20
49218;DHT22;35045;51.194;7.268;2023-04-06T12:26:36;13.90;75.50
49218;DHT22;35045;51.194;7.268;2023-04-06T12:29:03;13.90;75.90
49218;DHT22;35045;51.194;7.268;2023-04-06T12:31:36;13.70;77.30
49218;DHT22;35045;51.194;7.268;2023-04-06T12:34:02;13.80;77.50
49218;DHT22;35045;51.194;7.268;2023-04-06T12:36:29;14.00;76.90
49218;DHT22;35045;51.194;7.268;2023-04-06T12:38:55;13.90;76.60
49218;DHT22;35045;51.194;7.268;2023-04-06T12:41:22;14.10;76.50
49218;DHT22;35045;51.194;7.268;2023-04-06T12:43:48;14.00;77.70
49218;DHT22;35045;51.194;7.268;2023-04-06T12:46:15;13.90;78.30
49218;DHT22;35045;51.194;7.268;2023-04-06T12:48:42;13.90;78.50
49218;DHT22;35045;51.194;7.268;2023-04-06T12:51:08;13.80;78.70
49218;DHT22;35045;51.194;7.268;2023-04-06T12:53:34;13.70;79.00
49218;DHT22;35045;51.194;7.268;2023-04-06T12:56:02;13.60;79.20
49218;DHT22;35045;51.194;7.268;2023-04-06T12:58:28;13.50;78.00
49218;DHT22;35045;51.194;7.268;2023-04-06T13:00:57;13.30;78.20
49218;DHT22;35045;51.194;7.268;2023-04-06T13:03:28;13.40;78.90
49218;DHT22;35045;51.194;7.268;2023-04-06T13:05:55;13.30;78.20
49218;DHT22;35045;51.194;7.268;2023-04-06T13:08:21;13.40;77.80
49218;DHT22;35045;51.194;7.268;2023-04-06T13:10:48;13.30;78.90
49218;DHT22;35045;51.194;7.268;2023-04-06T13:13:15;13.40;78.20
49218;DHT22;35045;51.194;7.268;2023-04-06T13:15:41;13.40;78.70
49218;DHT22;35045;51.194;7.268;2023-04-06T13:18:08;13.50;78.70
49218;DHT22;35045;51.194;7.268;2023-04-06T13:20:35;13.40;78.60
49218;DHT22;35045;51.194;7.268;2023-04-06T13:23:01;13.30;78.40
49218;DHT22;35045;51.194;7.268;2023-04-06T13:25:28;13.30;79.20
49218;DHT22;35045;51.194;7.268;2023-04-06T13:27:55;13.30;79.00
49218;DHT22;35045;51.194;7.268;2023-04-06T13:30:21;13.20;79.40
49218;DHT22;35045;51.194;7.268;2023-04-06T13:32:47;13.20;79.40
49218;DHT22;35045;51.194;7.268;2023-04-06T13:35:13;13.10;80.60
49218;DHT22;35045;51.194;7.268;2023-04-06T13:37:40;13.20;79.70
49218;DHT22;35045;51.194;7.268;2023-04-06T13:40:06;13.20;79.70
49218;DHT22;35045;51.194;7.268;2023-04-06T13:42:33;13.30;80.20
49218;DHT22;35045;51.194;7.268;2023-04-06T13:45:01;13.40;79.70
49218;DHT22;35045;51.194;7.268;2023-04-06T13:47:28;13.30;80.40
49218;DHT22;35045;51.194;7.268;2023-04-06T13:49:54;13.10;79.20
49218;DHT22;35045;51.194;7.268;2023-04-06T13:52:21;12.90;79.50
49218;DHT22;35045;51.194;7.268;2023-04-06T13:54:48;12.90;79.60
49218;DHT22;35045;51.194;7.268;2023-04-06T13:57:15;12.80;79.10
49218;DHT22;35045;51.194;7.268;2023-04-06T13:59:42;12.70;79.00
49218;DHT22;35045;51.194;7.268;2023-04-06T14:02:13;12.70;79.70
49218;DHT22;35045;51.194;7.268;2023-04-06T14:04:39;12.70;79.50
49218;DHT22;35045;51.194;7.268;2023-04-06T14:07:05;12.60;81.00
49218;DHT22;35045;51.194;7.268;2023-04-06T14:09:33;12.60;82.00
49218;DHT22;35045;51.194;7.268;2023-04-06T14:11:59;12.60;82.10
49218;DHT22;35045;51.194;7.268;2023-04-06T14:14:26;12.50;82.90
49218;DHT22;35045;51.194;7.268;2023-04-06T14:16:52;12.40;82.90
49218;DHT22;35045;51.194;7.268;2023-04-06T14:19:18;12.40;83.70
49218;DHT22;35045;51.194;7.268;2023-04-06T14:21:45;12.20;84.90
49218;DHT22;35045;51.194;7.268;2023-04-06T14:24:11;12.10;86.50
49218;DHT22;35045;51.194;7.268;2023-04-06T14:26:39;12.10;86.50
49218;DHT22;35045;51.194;7.268;2023-04-06T14:29:05;12.00;87.40
49218;DHT22;35045;51.194;7.268;2023-04-06T14:31:32;12.00;87.60
49218;DHT22;35045;51.194;7.268;2023-04-06T14:34:00;12.00;88.90
49218;DHT22;35045;51.194;7.268;2023-04-06T14:36:27;12.00;90.10
49218;DHT22;35045;51.194;7.268;2023-04-06T14:38:57;11.90;89.00
49218;DHT22;35045;51.194;7.268;2023-04-06T14:41:24;11.80;90.40
49218;DHT22;35045;51.194;7.268;2023-04-06T14:43:51;11.70;90.00
49218;DHT22;35045;51.194;7.268;2023-04-06T14:46:18;11.80;90.20
49218;DHT22;35045;51.194;7.268;2023-04-06T14:48:45;11.70;90.30
49218;DHT22;35045;51.194;7.268;2023-04-06T14:51:11;11.60;89.60
49218;DHT22;35045;51.194;7.268;2023-04-06T14:53:37;11.60;89.90
49218;DHT22;35045;51.194;7.268;2023-04-06T14:56:04;11.50;90.70
49218;DHT22;35045;51.194;7.268;2023-04-06T14:58:30;11.40;90.90
49218;DHT22;35045;51.194;7.268;2023-04-06T15:00:58;11.30;91.20
49218;DHT22;35045;51.194;7.268;2023-04-06T15:03:25;11.20;91.60
49218;DHT22;35045;51.194;7.268;2023-04-06T15:05:52;11.20;91.70
49218;DHT22;35045;51.194;7.268;2023-04-06T15:08:19;11.10;91.50
49218;DHT22;35045;51.194;7.268;2023-04-06T15:10:49;11.00;91.60
49218;DHT22;35045;51.194;7.268;2023-04-06T15:13:16;10.80;92.10
49218;DHT22;35045;51.194;7.268;2023-04-06T15:15:42;10.80;92.50
49218;DHT22;35045;51.194;7.268;2023-04-06T15:18:09;10.70;93.20
49218;DHT22;35045;51.194;7.268;2023-04-06T15:20:35;10.60;92.90
49218;DHT22;35045;51.194;7.268;2023-04-06T15:23:02;10.60;93.50
49218;DHT22;35045;51.194;7.268;2023-04-06T15:25:29;10.50;93.70
49218;DHT22;35045;51.194;7.268;2023-04-06T15:27:56;10.40;94.10
49218;DHT22;35045;51.194;7.268;2023-04-06T15:30:23;10.40;94.20
49218;DHT22;35045;51.194;7.268;2023-04-06T15:33:00;10.30;94.80
49218;DHT22;35045;51.194;7.268;2023-04-06T15:35:27;10.20;95.50
49218;DHT22;35045;51.194;7.268;2023-04-06T15:37:57;10.30;95.60
49218;DHT22;35045;51.194;7.268;2023-04-06T15:40:24;10.30;95.60
49218;DHT22;35045;51.194;7.268;2023-04-06T15:42:51;10.20;96.20
49218;DHT22;35045;51.194;7.268;2023-04-06T15:45:17;10.10;96.70
49218;DHT22;35045;51.194;7.268;2023-04-06T15:47:44;10.20;96.80
49218;DHT22;35045;51.194;7.268;2023-04-06T15:50:13;10.10;97.20
49218;DHT22;35045;51.194;7.268;2023-04-06T15:52:40;9.90;97.80